sensor_id;sensor_type;location;lat;lon;timestamp;temperature;humidity
46730;DHT22;32476;50.002;11.854;2022-08-01T00:01:14;17.10;99.90
46730;DHT22;32476;50.002;11.854;2022-08-01T00:03:41;17.20;99.90
46730;DHT22;32476;50.002;11.854;2022-08-01T00:06:08;17.20;99.90
46730;DHT22;32476;50.002;11.854;2022-08-01T00:08:34;17.30;99.90
46730;DHT22;32476;50.002;11.854;2022-08-01T00:11:00;17.40;99.90
46730;DHT22;32476;50.002;11.854;2022-08-01T00:13:28;17.70;99.90
46730;DHT22;32476;50.002;11.854;2022-08-01T00:15:54;17.90;99.90
46730;DHT22;32476;50.002;11.854;2022-08-01T00:18:20;18.10;99.90
46730;DHT22;32476;50.002;11.854;2022-08-01T00:20:47;18.20;99.90
46730;DHT22;32476;50.002;11.854;2022-08-01T00:23:13;18.10;99.90
46730;DHT22;32476;50.002;11.854;2022-08-01T00:25:39;17.80;99.90
46730;DHT22;32476;50.002;11.854;2022-08-01T00:28:07;17.50;99.90
46730;DHT22;32476;50.002;11.854;2022-08-01T00:30:35;17.30;99.90
46730;DHT22;32476;50.002;11.854;2022-08-01T00:33:02;17.00;99.90
46730;DHT22;32476;50.002;11.854;2022-08-01T00:35:29;16.90;99.90
46730;DHT22;32476;50.002;11.854;2022-08-01T00:37:55;16.70;99.90
46730;DHT22;32476;50.002;11.854;2022-08-01T00:40:21;16.60;99.90
46730;DHT22;32476;50.002;11.854;2022-08-01T00:42:49;16.50;99.90
46730;DHT22;32476;50.002;11.854;2022-08-01T00:45:15;16.50;99.90
46730;DHT22;32476;50.002;11.854;2022-08-01T00:47:41;16.40;99.90
46730;DHT22;32476;50.002;11.854;2022-08-01T00:50:09;16.40;99.90
46730;DHT22;32476;50.002;11.854;2022-08-01T00:52:36;16.40;99.90
46730;DHT22;32476;50.002;11.854;2022-08-01T00:55:02;16.40;99.90
46730;DHT22;32476;50.002;11.854;2022-08-01T00:57:31;16.40;99.90
46730;DHT22;32476;50.002;11.854;2022-08-01T00:59:58;16.40;99.90
46730;DHT22;32476;50.002;11.854;2022-08-01T01:02:23;16.30;99.90
46730;DHT22;32476;50.002;11.854;2022-08-01T01:04:51;16.30;99.90
46730;DHT22;32476;50.002;11.854;2022-08-01T01:07:35;16.20;99.90
46730;DHT22;32476;50.002;11.854;2022-08-01T01:10:19;16.20;99.90
46730;DHT22;32476;50.002;11.854;2022-08-01T01:16:00;16.10;99.90
46730;DHT22;32476;50.002;11.854;2022-08-01T01:18:38;16.00;99.90
46730;DHT22;32476;50.002;11.854;2022-08-01T01:29:31;15.80;99.90
46730;DHT22;32476;50.002;11.854;2022-08-01T01:32:06;15.80;99.90
46730;DHT22;32476;50.002;11.854;2022-08-01T01:34:37;15.80;99.90
46730;DHT22;32476;50.002;11.854;2022-08-01T01:37:12;15.70;99.90
46730;DHT22;32476;50.002;11.854;2022-08-01T01:39:41;15.60;99.90
46730;DHT22;32476;50.002;11.854;2022-08-01T01:42:09;15.60;99.90
46730;DHT22;32476;50.002;11.854;2022-08-01T01:44:37;15.50;99.90
46730;DHT22;32476;50.002;11.854;2022-08-01T01:47:04;15.40;99.90
46730;DHT22;32476;50.002;11.854;2022-08-01T01:49:33;15.40;99.90
46730;DHT22;32476;50.002;11.854;2022-08-01T01:52:01;15.40;99.90
46730;DHT22;32476;50.002;11.854;2022-08-01T01:54:33;15.30;99.90
46730;DHT22;32476;50.002;11.854;2022-08-01T01:57:05;15.30;99.90
46730;DHT22;32476;50.002;11.854;2022-08-01T01:59:35;15.30;99.90
46730;DHT22;32476;50.002;11.854;2022-08-01T02:02:05;15.20;99.90
46730;DHT22;32476;50.002;11.854;2022-08-01T02:04:35;15.20;99.90
46730;DHT22;32476;50.002;11.854;2022-08-01T02:07:04;15.10;99.90
46730;DHT22;32476;50.002;11.854;2022-08-01T02:09:31;15.30;99.90
46730;DHT22;32476;50.002;11.854;2022-08-01T02:12:00;15.70;99.90
46730;DHT22;32476;50.002;11.854;2022-08-01T02:14:31;15.60;99.90
46730;DHT22;32476;50.002;11.854;2022-08-01T02:16:58;15.70;99.90
46730;DHT22;32476;50.002;11.854;2022-08-01T02:19:26;15.80;99.90
46730;DHT22;32476;50.002;11.854;2022-08-01T02:22:14;16.00;99.90
46730;DHT22;32476;50.002;11.854;2022-08-01T02:24:52;16.00;99.90
46730;DHT22;32476;50.002;11.854;2022-08-01T02:27:34;15.90;99.90
46730;DHT22;32476;50.002;11.854;2022-08-01T02:30:08;15.90;99.90
46730;DHT22;32476;50.002;11.854;2022-08-01T02:32:49;15.80;99.90
46730;DHT22;32476;50.002;11.854;2022-08-01T02:35:27;16.00;99.90
46730;DHT22;32476;50.002;11.854;2022-08-01T02:37:57;15.80;99.90
46730;DHT22;32476;50.002;11.854;2022-08-01T02:40:26;15.90;99.90
46730;DHT22;32476;50.002;11.854;2022-08-01T02:42:55;15.80;99.90
46730;DHT22;32476;50.002;11.854;2022-08-01T02:45:25;15.70;99.90
46730;DHT22;32476;50.002;11.854;2022-08-01T02:47:56;15.90;99.90
46730;DHT22;32476;50.002;11.854;2022-08-01T02:50:27;16.20;99.90
46730;DHT22;32476;50.002;11.854;2022-08-01T02:52:55;16.30;99.90
46730;DHT22;32476;50.002;11.854;2022-08-01T02:55:22;16.30;99.90
46730;DHT22;32476;50.002;11.854;2022-08-01T02:57:52;16.30;99.90
46730;DHT22;32476;50.002;11.854;2022-08-01T03:00:19;16.20;99.90
46730;DHT22;32476;50.002;11.854;2022-08-01T03:02:46;16.30;99.90
46730;DHT22;32476;50.002;11.854;2022-08-01T03:05:16;16.30;99.90
46730;DHT22;32476;50.002;11.854;2022-08-01T03:07:42;16.40;99.90
46730;DHT22;32476;50.002;11.854;2022-08-01T03:10:09;16.80;99.90
46730;DHT22;32476;50.002;11.854;2022-08-01T03:12:38;16.80;99.90
46730;DHT22;32476;50.002;11.854;2022-08-01T03:15:05;16.90;99.90
46730;DHT22;32476;50.002;11.854;2022-08-01T03:17:33;16.80;99.90
46730;DHT22;32476;50.002;11.854;2022-08-01T03:20:03;16.80;99.90
46730;DHT22;32476;50.002;11.854;2022-08-01T03:22:30;16.90;99.90
46730;DHT22;32476;50.002;11.854;2022-08-01T03:24:59;17.00;99.90
46730;DHT22;32476;50.002;11.854;2022-08-01T03:27:28;17.00;99.90
46730;DHT22;32476;50.002;11.854;2022-08-01T03:29:55;17.00;99.90
46730;DHT22;32476;50.002;11.854;2022-08-01T03:32:23;17.10;99.90
46730;DHT22;32476;50.002;11.854;2022-08-01T03:34:50;16.90;99.90
46730;DHT22;32476;50.002;11.854;2022-08-01T03:37:28;16.90;99.90
46730;DHT22;32476;50.002;11.854;2022-08-01T03:40:04;17.00;99.90
46730;DHT22;32476;50.002;11.854;2022-08-01T03:42:39;16.80;99.90
46730;DHT22;32476;50.002;11.854;2022-08-01T03:45:19;16.80;99.90
46730;DHT22;32476;50.002;11.854;2022-08-01T03:47:49;16.80;99.90
46730;DHT22;32476;50.002;11.854;2022-08-01T03:50:21;16.70;99.90
46730;DHT22;32476;50.002;11.854;2022-08-01T03:52:49;16.70;99.90
46730;DHT22;32476;50.002;11.854;2022-08-01T03:55:16;16.60;99.90
46730;DHT22;32476;50.002;11.854;2022-08-01T03:57:46;16.70;99.90
46730;DHT22;32476;50.002;11.854;2022-08-01T04:00:14;16.70;99.90
46730;DHT22;32476;50.002;11.854;2022-08-01T04:02:49;16.60;99.90
46730;DHT22;32476;50.002;11.854;2022-08-01T04:05:15;16.60;99.90
46730;DHT22;32476;50.002;11.854;2022-08-01T04:07:46;16.50;99.90
46730;DHT22;32476;50.002;11.854;2022-08-01T04:10:15;16.40;99.90
46730;DHT22;32476;50.002;11.854;2022-08-01T04:12:42;16.50;99.90
46730;DHT22;32476;50.002;11.854;2022-08-01T04:15:08;16.40;99.90
46730;DHT22;32476;50.002;11.854;2022-08-01T04:17:36;16.40;99.90
46730;DHT22;32476;50.002;11.854;2022-08-01T04:20:02;16.40;99.90
46730;DHT22;32476;50.002;11.854;2022-08-01T04:22:28;16.30;99.90
46730;DHT22;32476;50.002;11.854;2022-08-01T04:24:58;16.30;99.90
46730;DHT22;32476;50.002;11.854;2022-08-01T04:27:31;16.30;99.90
46730;DHT22;32476;50.002;11.854;2022-08-01T04:30:00;16.30;99.90
46730;DHT22;32476;50.002;11.854;2022-08-01T04:32:29;16.30;99.90
46730;DHT22;32476;50.002;11.854;2022-08-01T04:34:59;16.20;99.90
46730;DHT22;32476;50.002;11.854;2022-08-01T04:37:27;16.20;99.90
46730;DHT22;32476;50.002;11.854;2022-08-01T04:39:55;16.10;99.90
46730;DHT22;32476;50.002;11.854;2022-08-01T04:42:22;16.00;99.90
46730;DHT22;32476;50.002;11.854;2022-08-01T04:44:50;16.00;99.90
46730;DHT22;32476;50.002;11.854;2022-08-01T04:47:17;15.90;99.90
46730;DHT22;32476;50.002;11.854;2022-08-01T04:49:43;15.90;99.90
46730;DHT22;32476;50.002;11.854;2022-08-01T04:52:12;15.90;99.90
46730;DHT22;32476;50.002;11.854;2022-08-01T04:54:39;15.80;99.90
46730;DHT22;32476;50.002;11.854;2022-08-01T04:57:05;15.70;99.90
46730;DHT22;32476;50.002;11.854;2022-08-01T04:59:37;15.80;99.90
46730;DHT22;32476;50.002;11.854;2022-08-01T05:02:17;15.70;99.90
46730;DHT22;32476;50.002;11.854;2022-08-01T05:04:46;15.70;99.90
46730;DHT22;32476;50.002;11.854;2022-08-01T05:07:12;15.70;99.90
46730;DHT22;32476;50.002;11.854;2022-08-01T05:09:40;15.70;99.90
46730;DHT22;32476;50.002;11.854;2022-08-01T05:12:13;15.70;99.90
46730;DHT22;32476;50.002;11.854;2022-08-01T05:14:39;15.70;99.90
46730;DHT22;32476;50.002;11.854;2022-08-01T05:17:07;15.80;99.90
46730;DHT22;32476;50.002;11.854;2022-08-01T05:19:36;15.80;99.90
46730;DHT22;32476;50.002;11.854;2022-08-01T05:22:04;16.00;99.90
46730;DHT22;32476;50.002;11.854;2022-08-01T05:24:33;16.00;99.90
46730;DHT22;32476;50.002;11.854;2022-08-01T05:27:02;16.00;99.90
46730;DHT22;32476;50.002;11.854;2022-08-01T05:29:29;16.20;99.90
46730;DHT22;32476;50.002;11.854;2022-08-01T05:31:56;16.30;99.90
46730;DHT22;32476;50.002;11.854;2022-08-01T05:34:25;16.60;99.90
46730;DHT22;32476;50.002;11.854;2022-08-01T05:36:53;16.70;99.90
46730;DHT22;32476;50.002;11.854;2022-08-01T05:39:19;16.80;99.90
46730;DHT22;32476;50.002;11.854;2022-08-01T05:41:46;16.90;99.90
46730;DHT22;32476;50.002;11.854;2022-08-01T05:44:12;17.10;99.90
46730;DHT22;32476;50.002;11.854;2022-08-01T05:46:38;17.20;99.90
46730;DHT22;32476;50.002;11.854;2022-08-01T05:49:06;17.30;99.90
46730;DHT22;32476;50.002;11.854;2022-08-01T05:51:32;17.50;99.90
46730;DHT22;32476;50.002;11.854;2022-08-01T05:53:58;17.50;99.90
46730;DHT22;32476;50.002;11.854;2022-08-01T05:56:26;17.60;99.90
46730;DHT22;32476;50.002;11.854;2022-08-01T05:58:52;17.60;99.90
46730;DHT22;32476;50.002;11.854;2022-08-01T06:01:18;17.60;99.90
46730;DHT22;32476;50.002;11.854;2022-08-01T06:03:46;17.60;99.90
46730;DHT22;32476;50.002;11.854;2022-08-01T06:06:12;17.60;99.90
46730;DHT22;32476;50.002;11.854;2022-08-01T06:08:41;17.70;99.90
46730;DHT22;32476;50.002;11.854;2022-08-01T06:11:08;17.60;99.90
46730;DHT22;32476;50.002;11.854;2022-08-01T06:13:34;17.70;99.90
46730;DHT22;32476;50.002;11.854;2022-08-01T06:16:00;17.70;99.90
46730;DHT22;32476;50.002;11.854;2022-08-01T06:18:28;17.80;99.90
46730;DHT22;32476;50.002;11.854;2022-08-01T06:20:54;18.00;99.90
46730;DHT22;32476;50.002;11.854;2022-08-01T06:23:21;18.10;99.90
46730;DHT22;32476;50.002;11.854;2022-08-01T06:25:52;18.20;99.90
46730;DHT22;32476;50.002;11.854;2022-08-01T06:28:20;18.20;99.90
46730;DHT22;32476;50.002;11.854;2022-08-01T06:30:48;18.30;99.90
46730;DHT22;32476;50.002;11.854;2022-08-01T06:33:14;18.50;99.90
46730;DHT22;32476;50.002;11.854;2022-08-01T06:35:40;18.50;99.90
46730;DHT22;32476;50.002;11.854;2022-08-01T06:38:10;18.50;99.90
46730;DHT22;32476;50.002;11.854;2022-08-01T06:40:36;18.60;99.90
46730;DHT22;32476;50.002;11.854;2022-08-01T06:43:04;18.60;99.90
46730;DHT22;32476;50.002;11.854;2022-08-01T06:45:31;18.50;99.90
46730;DHT22;32476;50.002;11.854;2022-08-01T06:47:57;18.60;99.90
46730;DHT22;32476;50.002;11.854;2022-08-01T06:50:23;18.60;99.90
46730;DHT22;32476;50.002;11.854;2022-08-01T06:52:51;18.60;99.90
46730;DHT22;32476;50.002;11.854;2022-08-01T06:55:16;18.60;99.90
46730;DHT22;32476;50.002;11.854;2022-08-01T06:57:47;18.70;99.90
46730;DHT22;32476;50.002;11.854;2022-08-01T07:00:16;19.00;99.90
46730;DHT22;32476;50.002;11.854;2022-08-01T07:02:46;19.20;99.90
46730;DHT22;32476;50.002;11.854;2022-08-01T07:05:12;19.30;99.90
46730;DHT22;32476;50.002;11.854;2022-08-01T07:07:40;19.10;99.90
46730;DHT22;32476;50.002;11.854;2022-08-01T07:10:06;19.00;99.90
46730;DHT22;32476;50.002;11.854;2022-08-01T07:12:34;19.00;99.90
46730;DHT22;32476;50.002;11.854;2022-08-01T07:15:06;19.30;99.90
46730;DHT22;32476;50.002;11.854;2022-08-01T07:17:42;19.20;99.90
46730;DHT22;32476;50.002;11.854;2022-08-01T07:20:11;19.30;99.90
46730;DHT22;32476;50.002;11.854;2022-08-01T07:22:38;19.10;99.90
46730;DHT22;32476;50.002;11.854;2022-08-01T07:25:05;19.10;99.90
46730;DHT22;32476;50.002;11.854;2022-08-01T07:27:33;19.10;99.90
46730;DHT22;32476;50.002;11.854;2022-08-01T07:29:59;19.40;99.90
46730;DHT22;32476;50.002;11.854;2022-08-01T07:32:25;19.40;99.90
46730;DHT22;32476;50.002;11.854;2022-08-01T07:34:52;19.80;99.90
46730;DHT22;32476;50.002;11.854;2022-08-01T07:37:18;20.10;99.90
46730;DHT22;32476;50.002;11.854;2022-08-01T07:39:44;20.00;99.90
46730;DHT22;32476;50.002;11.854;2022-08-01T07:42:11;20.10;99.90
46730;DHT22;32476;50.002;11.854;2022-08-01T07:44:37;19.90;99.90
46730;DHT22;32476;50.002;11.854;2022-08-01T07:47:04;19.80;99.90
46730;DHT22;32476;50.002;11.854;2022-08-01T07:49:32;19.70;99.90
46730;DHT22;32476;50.002;11.854;2022-08-01T07:51:59;20.10;99.90
46730;DHT22;32476;50.002;11.854;2022-08-01T07:54:25;19.80;99.90
46730;DHT22;32476;50.002;11.854;2022-08-01T07:56:55;19.60;99.90
46730;DHT22;32476;50.002;11.854;2022-08-01T07:59:21;19.90;99.90
46730;DHT22;32476;50.002;11.854;2022-08-01T08:01:49;19.60;99.90
46730;DHT22;32476;50.002;11.854;2022-08-01T08:04:18;20.00;99.90
46730;DHT22;32476;50.002;11.854;2022-08-01T08:06:44;20.10;99.90
46730;DHT22;32476;50.002;11.854;2022-08-01T08:09:13;20.60;99.90
46730;DHT22;32476;50.002;11.854;2022-08-01T08:11:45;20.80;99.90
46730;DHT22;32476;50.002;11.854;2022-08-01T08:14:12;20.90;99.90
46730;DHT22;32476;50.002;11.854;2022-08-01T08:16:38;20.70;99.90
46730;DHT22;32476;50.002;11.854;2022-08-01T08:19:07;20.20;99.90
46730;DHT22;32476;50.002;11.854;2022-08-01T08:21:32;20.20;99.90
46730;DHT22;32476;50.002;11.854;2022-08-01T08:23:58;20.80;99.90
46730;DHT22;32476;50.002;11.854;2022-08-01T08:26:48;21.10;99.90
46730;DHT22;32476;50.002;11.854;2022-08-01T08:29:20;21.40;99.90
46730;DHT22;32476;50.002;11.854;2022-08-01T08:31:49;21.30;99.90
46730;DHT22;32476;50.002;11.854;2022-08-01T08:34:16;21.80;99.90
46730;DHT22;32476;50.002;11.854;2022-08-01T08:36:42;21.80;99.90
46730;DHT22;32476;50.002;11.854;2022-08-01T08:39:10;21.70;99.90
46730;DHT22;32476;50.002;11.854;2022-08-01T08:41:36;21.90;99.90
46730;DHT22;32476;50.002;11.854;2022-08-01T08:44:07;22.30;99.90
46730;DHT22;32476;50.002;11.854;2022-08-01T08:46:42;22.10;99.90
46730;DHT22;32476;50.002;11.854;2022-08-01T08:49:10;21.80;99.90
46730;DHT22;32476;50.002;11.854;2022-08-01T08:51:39;21.70;99.90
46730;DHT22;32476;50.002;11.854;2022-08-01T08:54:07;21.40;99.90
46730;DHT22;32476;50.002;11.854;2022-08-01T08:56:39;21.40;99.90
46730;DHT22;32476;50.002;11.854;2022-08-01T08:59:05;21.00;99.90
46730;DHT22;32476;50.002;11.854;2022-08-01T09:01:31;21.20;99.90
46730;DHT22;32476;50.002;11.854;2022-08-01T09:04:03;20.80;99.90
46730;DHT22;32476;50.002;11.854;2022-08-01T09:06:30;20.70;99.90
46730;DHT22;32476;50.002;11.854;2022-08-01T09:08:57;20.70;99.90
46730;DHT22;32476;50.002;11.854;2022-08-01T09:11:25;20.80;99.90
46730;DHT22;32476;50.002;11.854;2022-08-01T09:14:21;21.00;99.90
46730;DHT22;32476;50.002;11.854;2022-08-01T09:17:07;20.90;99.90
46730;DHT22;32476;50.002;11.854;2022-08-01T09:19:37;21.10;99.90
46730;DHT22;32476;50.002;11.854;2022-08-01T09:22:17;21.00;99.90
46730;DHT22;32476;50.002;11.854;2022-08-01T09:27:34;20.90;99.90
46730;DHT22;32476;50.002;11.854;2022-08-01T09:30:14;21.10;99.90
46730;DHT22;32476;50.002;11.854;2022-08-01T09:32:53;20.80;99.90
46730;DHT22;32476;50.002;11.854;2022-08-01T09:35:34;21.30;99.90
46730;DHT22;32476;50.002;11.854;2022-08-01T09:38:18;22.10;99.90
46730;DHT22;32476;50.002;11.854;2022-08-01T09:40:55;22.10;99.90
46730;DHT22;32476;50.002;11.854;2022-08-01T09:43:28;22.30;99.90
46730;DHT22;32476;50.002;11.854;2022-08-01T09:45:56;22.00;99.90
46730;DHT22;32476;50.002;11.854;2022-08-01T09:48:22;22.10;99.90
46730;DHT22;32476;50.002;11.854;2022-08-01T09:50:51;21.70;99.90
46730;DHT22;32476;50.002;11.854;2022-08-01T09:53:18;21.30;99.90
46730;DHT22;32476;50.002;11.854;2022-08-01T09:55:45;21.40;99.90
46730;DHT22;32476;50.002;11.854;2022-08-01T09:58:12;21.30;99.90
46730;DHT22;32476;50.002;11.854;2022-08-01T10:00:39;22.20;99.90
46730;DHT22;32476;50.002;11.854;2022-08-01T10:03:37;23.20;99.90
46730;DHT22;32476;50.002;11.854;2022-08-01T10:06:21;23.60;99.90
46730;DHT22;32476;50.002;11.854;2022-08-01T10:08:48;22.40;99.90
46730;DHT22;32476;50.002;11.854;2022-08-01T10:11:19;22.80;99.90
46730;DHT22;32476;50.002;11.854;2022-08-01T10:13:47;22.30;99.90
46730;DHT22;32476;50.002;11.854;2022-08-01T10:16:14;22.10;99.90
46730;DHT22;32476;50.002;11.854;2022-08-01T10:18:41;22.80;99.90
46730;DHT22;32476;50.002;11.854;2022-08-01T10:21:10;22.30;99.90
46730;DHT22;32476;50.002;11.854;2022-08-01T10:23:37;21.70;99.90
46730;DHT22;32476;50.002;11.854;2022-08-01T10:26:05;21.80;99.90
46730;DHT22;32476;50.002;11.854;2022-08-01T10:28:35;21.70;99.90
46730;DHT22;32476;50.002;11.854;2022-08-01T10:31:02;21.30;99.90
46730;DHT22;32476;50.002;11.854;2022-08-01T10:33:30;21.30;99.90
46730;DHT22;32476;50.002;11.854;2022-08-01T10:35:57;21.20;99.90
46730;DHT22;32476;50.002;11.854;2022-08-01T10:38:23;20.90;99.90
46730;DHT22;32476;50.002;11.854;2022-08-01T10:40:52;21.10;99.90
46730;DHT22;32476;50.002;11.854;2022-08-01T10:43:19;20.90;99.90
46730;DHT22;32476;50.002;11.854;2022-08-01T10:45:45;20.90;99.90
46730;DHT22;32476;50.002;11.854;2022-08-01T10:48:22;21.10;99.90
46730;DHT22;32476;50.002;11.854;2022-08-01T10:50:54;21.20;99.90
46730;DHT22;32476;50.002;11.854;2022-08-01T10:53:23;21.00;99.90
46730;DHT22;32476;50.002;11.854;2022-08-01T10:58:29;21.10;99.90
46730;DHT22;32476;50.002;11.854;2022-08-01T11:03:43;20.80;99.90
46730;DHT22;32476;50.002;11.854;2022-08-01T11:06:17;20.50;99.90
46730;DHT22;32476;50.002;11.854;2022-08-01T11:08:52;20.10;99.90
46730;DHT22;32476;50.002;11.854;2022-08-01T11:11:20;19.80;99.90
46730;DHT22;32476;50.002;11.854;2022-08-01T11:16:31;19.30;99.90
46730;DHT22;32476;50.002;11.854;2022-08-01T11:18:59;19.10;99.90
46730;DHT22;32476;50.002;11.854;2022-08-01T11:27:25;19.90;99.90
46730;DHT22;32476;50.002;11.854;2022-08-01T11:30:22;20.30;99.90
46730;DHT22;32476;50.002;11.854;2022-08-01T11:32:50;21.10;99.90
46730;DHT22;32476;50.002;11.854;2022-08-01T11:35:20;21.70;99.90
46730;DHT22;32476;50.002;11.854;2022-08-01T11:37:47;21.50;99.90
46730;DHT22;32476;50.002;11.854;2022-08-01T11:40:20;21.00;99.90
46730;DHT22;32476;50.002;11.854;2022-08-01T11:42:51;21.00;99.90
46730;DHT22;32476;50.002;11.854;2022-08-01T11:45:55;21.20;99.90
46730;DHT22;32476;50.002;11.854;2022-08-01T11:48:25;21.00;99.90
46730;DHT22;32476;50.002;11.854;2022-08-01T11:50:53;20.30;99.90
46730;DHT22;32476;50.002;11.854;2022-08-01T11:53:20;20.10;99.90
46730;DHT22;32476;50.002;11.854;2022-08-01T11:55:50;20.40;99.90
46730;DHT22;32476;50.002;11.854;2022-08-01T11:58:23;20.50;99.90
46730;DHT22;32476;50.002;11.854;2022-08-01T12:00:56;20.30;99.90
46730;DHT22;32476;50.002;11.854;2022-08-01T12:03:31;20.60;99.90
46730;DHT22;32476;50.002;11.854;2022-08-01T12:06:00;20.80;99.90
46730;DHT22;32476;50.002;11.854;2022-08-01T12:08:28;20.80;99.90
46730;DHT22;32476;50.002;11.854;2022-08-01T12:11:04;20.60;99.90
46730;DHT22;32476;50.002;11.854;2022-08-01T12:13:43;20.70;99.90
46730;DHT22;32476;50.002;11.854;2022-08-01T12:16:12;21.30;99.90
46730;DHT22;32476;50.002;11.854;2022-08-01T12:18:40;21.60;99.90
46730;DHT22;32476;50.002;11.854;2022-08-01T12:21:06;21.50;99.90
46730;DHT22;32476;50.002;11.854;2022-08-01T12:23:34;21.40;99.90
46730;DHT22;32476;50.002;11.854;2022-08-01T12:26:00;21.30;99.90
46730;DHT22;32476;50.002;11.854;2022-08-01T12:28:27;21.20;99.90
46730;DHT22;32476;50.002;11.854;2022-08-01T12:30:54;21.50;99.90
46730;DHT22;32476;50.002;11.854;2022-08-01T12:33:21;21.60;99.90
46730;DHT22;32476;50.002;11.854;2022-08-01T12:35:48;21.30;99.90
46730;DHT22;32476;50.002;11.854;2022-08-01T12:38:20;21.50;99.90
46730;DHT22;32476;50.002;11.854;2022-08-01T12:40:52;21.50;99.90
46730;DHT22;32476;50.002;11.854;2022-08-01T12:43:21;21.80;99.90
46730;DHT22;32476;50.002;11.854;2022-08-01T12:45:51;21.90;99.90
46730;DHT22;32476;50.002;11.854;2022-08-01T12:48:19;22.50;99.90
46730;DHT22;32476;50.002;11.854;2022-08-01T12:50:47;23.00;99.90
46730;DHT22;32476;50.002;11.854;2022-08-01T12:53:15;23.00;99.90
46730;DHT22;32476;50.002;11.854;2022-08-01T12:55:50;22.60;99.90
46730;DHT22;32476;50.002;11.854;2022-08-01T12:58:18;22.70;99.90
46730;DHT22;32476;50.002;11.854;2022-08-01T13:00:49;23.50;99.90
46730;DHT22;32476;50.002;11.854;2022-08-01T13:03:18;23.50;99.90
46730;DHT22;32476;50.002;11.854;2022-08-01T13:05:57;24.20;99.90
46730;DHT22;32476;50.002;11.854;2022-08-01T13:08:32;23.80;99.90
46730;DHT22;32476;50.002;11.854;2022-08-01T13:11:06;23.40;99.90
46730;DHT22;32476;50.002;11.854;2022-08-01T13:13:49;23.30;99.90
46730;DHT22;32476;50.002;11.854;2022-08-01T13:16:19;23.40;99.90
46730;DHT22;32476;50.002;11.854;2022-08-01T13:18:51;23.70;99.90
46730;DHT22;32476;50.002;11.854;2022-08-01T13:21:21;23.30;99.90
46730;DHT22;32476;50.002;11.854;2022-08-01T13:26:51;24.90;99.90
46730;DHT22;32476;50.002;11.854;2022-08-01T13:32:14;24.20;99.90
46730;DHT22;32476;50.002;11.854;2022-08-01T13:34:42;23.90;99.90
46730;DHT22;32476;50.002;11.854;2022-08-01T13:37:09;23.70;99.90
46730;DHT22;32476;50.002;11.854;2022-08-01T13:39:35;24.60;99.90
46730;DHT22;32476;50.002;11.854;2022-08-01T13:42:13;24.80;99.90
46730;DHT22;32476;50.002;11.854;2022-08-01T13:44:41;24.20;99.90
46730;DHT22;32476;50.002;11.854;2022-08-01T13:47:07;24.00;99.90
46730;DHT22;32476;50.002;11.854;2022-08-01T13:49:35;23.60;99.90
46730;DHT22;32476;50.002;11.854;2022-08-01T13:52:02;23.40;99.90
46730;DHT22;32476;50.002;11.854;2022-08-01T13:54:28;23.50;99.90
46730;DHT22;32476;50.002;11.854;2022-08-01T13:56:56;23.90;99.90
46730;DHT22;32476;50.002;11.854;2022-08-01T13:59:22;24.90;99.90
46730;DHT22;32476;50.002;11.854;2022-08-01T14:01:48;24.80;99.90
46730;DHT22;32476;50.002;11.854;2022-08-01T14:04:15;24.60;99.90
46730;DHT22;32476;50.002;11.854;2022-08-01T14:06:42;25.00;99.90
46730;DHT22;32476;50.002;11.854;2022-08-01T14:09:09;25.40;99.90
46730;DHT22;32476;50.002;11.854;2022-08-01T14:11:36;24.40;99.90
46730;DHT22;32476;50.002;11.854;2022-08-01T14:14:03;24.50;99.90
46730;DHT22;32476;50.002;11.854;2022-08-01T14:16:29;24.40;99.90
46730;DHT22;32476;50.002;11.854;2022-08-01T14:18:57;25.20;99.90
46730;DHT22;32476;50.002;11.854;2022-08-01T14:21:22;25.70;99.90
46730;DHT22;32476;50.002;11.854;2022-08-01T14:23:49;24.90;99.90
46730;DHT22;32476;50.002;11.854;2022-08-01T14:26:17;25.00;99.90
46730;DHT22;32476;50.002;11.854;2022-08-01T14:28:43;24.60;99.90
46730;DHT22;32476;50.002;11.854;2022-08-01T14:31:09;24.60;99.90
46730;DHT22;32476;50.002;11.854;2022-08-01T14:33:37;24.10;99.90
46730;DHT22;32476;50.002;11.854;2022-08-01T14:36:03;24.40;99.90
46730;DHT22;32476;50.002;11.854;2022-08-01T14:38:30;24.60;99.90
46730;DHT22;32476;50.002;11.854;2022-08-01T14:40:57;24.90;99.90
46730;DHT22;32476;50.002;11.854;2022-08-01T14:43:24;24.60;99.90
46730;DHT22;32476;50.002;11.854;2022-08-01T14:45:51;24.20;99.90
46730;DHT22;32476;50.002;11.854;2022-08-01T14:48:21;24.60;99.90
46730;DHT22;32476;50.002;11.854;2022-08-01T14:50:48;25.40;99.90
46730;DHT22;32476;50.002;11.854;2022-08-01T14:53:14;25.10;99.30
46730;DHT22;32476;50.002;11.854;2022-08-01T14:55:41;25.70;98.40
46730;DHT22;32476;50.002;11.854;2022-08-01T14:58:07;25.70;97.60
46730;DHT22;32476;50.002;11.854;2022-08-01T15:00:33;25.60;98.20
46730;DHT22;32476;50.002;11.854;2022-08-01T15:03:01;25.00;98.60
46730;DHT22;32476;50.002;11.854;2022-08-01T15:05:27;25.10;99.00
46730;DHT22;32476;50.002;11.854;2022-08-01T15:07:54;25.30;99.50
46730;DHT22;32476;50.002;11.854;2022-08-01T15:10:21;24.90;97.90
46730;DHT22;32476;50.002;11.854;2022-08-01T15:12:48;24.90;98.60
46730;DHT22;32476;50.002;11.854;2022-08-01T15:15:14;25.40;99.50
46730;DHT22;32476;50.002;11.854;2022-08-01T15:17:41;25.20;97.50
46730;DHT22;32476;50.002;11.854;2022-08-01T15:20:08;25.20;98.10
46730;DHT22;32476;50.002;11.854;2022-08-01T15:22:34;25.30;97.10
46730;DHT22;32476;50.002;11.854;2022-08-01T15:25:02;25.10;97.60
46730;DHT22;32476;50.002;11.854;2022-08-01T15:27:28;25.30;97.90
46730;DHT22;32476;50.002;11.854;2022-08-01T15:29:55;26.00;96.50
46730;DHT22;32476;50.002;11.854;2022-08-01T15:32:22;25.30;96.70
46730;DHT22;32476;50.002;11.854;2022-08-01T15:34:49;25.10;97.30
46730;DHT22;32476;50.002;11.854;2022-08-01T15:37:15;25.00;97.10
46730;DHT22;32476;50.002;11.854;2022-08-01T15:39:42;24.80;97.70
46730;DHT22;32476;50.002;11.854;2022-08-01T15:42:10;24.40;97.90
46730;DHT22;32476;50.002;11.854;2022-08-01T15:44:39;24.20;98.00
46730;DHT22;32476;50.002;11.854;2022-08-01T15:47:08;24.10;98.60
46730;DHT22;32476;50.002;11.854;2022-08-01T15:49:35;24.30;98.70
46730;DHT22;32476;50.002;11.854;2022-08-01T15:52:03;24.00;98.70
46730;DHT22;32476;50.002;11.854;2022-08-01T15:54:32;23.80;98.60
46730;DHT22;32476;50.002;11.854;2022-08-01T15:56:58;23.60;99.10
46730;DHT22;32476;50.002;11.854;2022-08-01T15:59:24;23.20;99.50
46730;DHT22;32476;50.002;11.854;2022-08-01T16:01:52;23.40;98.30